Time;durP1;ratioP1;P1;durP2;ratioP2;P2;SDS_P1;SDS_P2;PMS_P1;PMS_P2;Temp;Humidity;BMP_temperature;BMP_pressure;BME280_temperature;BME280_humidity;BME280_pressure;Samples;Min_cycle;Max_cycle;Signal;HPM_P1;HPM_P2
2021/06/26 00:00:40;;;;;;;5.33;4.93;;;;;24.50;100770.00;;;;2072387;28;20669;-57
2021/06/26 00:01:40;;;;;;;5.10;4.80;;;;;24.50;100774.00;;;;2063946;28;20281;-57
2021/06/26 00:02:41;;;;;;;5.77;5.37;;;;;24.40;100770.00;;;;2064370;28;20219;-56
2021/06/26 00:03:41;;;;;;;4.40;4.10;;;;;24.50;100769.00;;;;2064183;28;20211;-57
2021/06/26 00:04:43;;;;;;;5.20;4.83;;;;;24.50;100767.00;;;;2062409;28;20565;-57
2021/06/26 00:05:43;;;;;;;5.47;5.18;;;;;24.40;100768.00;;;;2066819;28;20706;-57
2021/06/26 00:06:43;;;;;;;4.90;4.60;;;;;24.50;100772.00;;;;2072210;28;20221;-57
2021/06/26 00:07:44;;;;;;;5.33;4.93;;;;;24.40;100779.00;;;;2067996;28;20238;-57
2021/06/26 00:08:44;;;;;;;6.17;5.77;;;;;24.50;100774.00;;;;2064584;28;20214;-57
2021/06/26 00:09:44;;;;;;;5.07;4.73;;;;;24.40;100780.00;;;;2071035;28;20214;-57
2021/06/26 00:10:45;;;;;;;5.13;4.83;;;;;24.40;100781.00;;;;2070141;28;20211;-56
2021/06/26 00:11:45;;;;;;;5.40;5.00;;;;;24.50;100784.00;;;;2063573;28;20223;-56
2021/06/26 00:12:46;;;;;;;5.50;5.10;;;;;24.50;100780.00;;;;2064234;28;20215;-57
2021/06/26 00:13:46;;;;;;;5.50;5.10;;;;;24.50;100776.00;;;;2064073;28;20228;-57
2021/06/26 00:14:46;;;;;;;5.83;5.43;;;;;24.50;100782.00;;;;2068158;28;20240;-57
2021/06/26 00:15:47;;;;;;;6.00;5.60;;;;;24.40;100785.00;;;;2066648;28;20215;-57
2021/06/26 00:16:47;;;;;;;5.50;5.10;;;;;24.50;100779.00;;;;2066354;28;20277;-56
2021/06/26 00:17:47;;;;;;;5.23;4.83;;;;;24.50;100779.00;;;;2071554;28;21307;-57
2021/06/26 00:18:48;;;;;;;5.67;5.27;;;;;24.40;100777.00;;;;2069290;28;20237;-55
2021/06/26 00:19:48;;;;;;;5.37;5.00;;;;;24.50;100776.00;;;;2065534;28;20250;-55
2021/06/26 00:20:49;;;;;;;5.70;5.30;;;;;24.50;100774.00;;;;2067535;28;20234;-57
2021/06/26 00:21:49;;;;;;;5.20;4.80;;;;;24.40;100777.00;;;;2067787;28;20222;-57
2021/06/26 00:22:49;;;;;;;5.40;5.07;;;;;24.50;100775.00;;;;2069671;28;20232;-56
2021/06/26 00:28:07;;;;;;;5.10;4.70;;;;;24.40;100782.00;;;;2231424;22;20214;-68
2021/06/26 00:31:27;;;;;;;5.22;4.90;;;;;24.40;100774.00;;;;2149120;23;20252;-70
2021/06/26 00:32:28;;;;;;;5.13;4.83;;;;;24.40;100779.00;;;;2068828;28;20222;-70
2021/06/26 00:33:28;;;;;;;5.13;4.80;;;;;24.50;100772.00;;;;2069560;28;20221;-70
2021/06/26 00:34:28;;;;;;;5.27;4.87;;;;;24.40;100774.00;;;;2068453;28;20222;-70
2021/06/26 00:35:29;;;;;;;5.57;5.17;;;;;24.40;100794.00;;;;2072383;28;20232;-70
2021/06/26 00:36:29;;;;;;;4.80;4.50;;;;;24.40;100782.00;;;;2067779;28;20446;-70
2021/06/26 00:37:29;;;;;;;5.30;5.00;;;;;24.40;100767.00;;;;2067103;28;20754;-70
2021/06/26 00:38:29;;;;;;;5.33;4.93;;;;;24.40;100778.00;;;;2066657;28;20575;-70
2021/06/26 00:39:30;;;;;;;4.93;4.63;;;;;24.40;100773.00;;;;2067320;28;20226;-70
2021/06/26 00:40:30;;;;;;;5.77;5.37;;;;;24.40;100769.00;;;;2066651;28;20288;-70
2021/06/26 00:41:31;;;;;;;5.90;5.50;;;;;24.40;100768.00;;;;2053815;28;20258;-70
2021/06/26 00:42:31;;;;;;;5.50;5.10;;;;;24.40;100773.00;;;;2043060;28;20267;-70
2021/06/26 00:43:32;;;;;;;5.23;4.83;;;;;24.40;100764.00;;;;2050645;28;20212;-70
2021/06/26 00:44:32;;;;;;;5.57;5.17;;;;;24.40;100772.00;;;;2059242;28;20500;-70
2021/06/26 00:45:32;;;;;;;5.23;4.83;;;;;24.40;100760.00;;;;2059380;28;20212;-69
2021/06/26 00:46:33;;;;;;;5.53;5.13;;;;;24.40;100765.00;;;;2059196;28;20226;-69
2021/06/26 00:47:34;;;;;;;5.10;4.80;;;;;24.40;100763.00;;;;2051799;28;20216;-69
2021/06/26 00:48:34;;;;;;;5.50;5.10;;;;;24.40;100768.00;;;;2043805;28;20508;-69
2021/06/26 00:49:34;;;;;;;5.30;4.90;;;;;24.40;100771.00;;;;2059319;28;20214;-69
2021/06/26 00:50:35;;;;;;;5.37;5.00;;;;;24.40;100756.00;;;;2059813;28;20226;-70
2021/06/26 00:51:35;;;;;;;5.20;4.80;;;;;24.40;100766.00;;;;2059651;28;20218;-69
2021/06/26 00:52:35;;;;;;;4.93;4.63;;;;;24.40;100755.00;;;;2059527;28;20242;-70
2021/06/26 00:53:36;;;;;;;5.50;5.10;;;;;24.40;100770.00;;;;2059605;28;20378;-70
2021/06/26 00:54:36;;;;;;;6.03;5.40;;;;;24.40;100760.00;;;;2059655;28;20257;-70
2021/06/26 00:55:37;;;;;;;5.13;4.73;;;;;24.40;100772.00;;;;2059385;28;20219;-69
2021/06/26 00:56:37;;;;;;;5.00;4.60;;;;;24.40;100765.00;;;;2067806;28;20218;-69
2021/06/26 00:57:38;;;;;;;5.37;4.97;;;;;24.40;100755.00;;;;2059447;28;20230;-69
2021/06/26 00:58:38;;;;;;;5.50;5.10;;;;;24.40;100758.00;;;;2051479;28;20220;-70
2021/06/26 00:59:39;;;;;;;5.60;4.90;;;;;24.40;100772.00;;;;2058780;28;20783;-70
2021/06/26 01:00:39;;;;;;;5.37;4.97;;;;;24.40;100764.00;;;;2058397;28;20745;-70
2021/06/26 01:01:39;;;;;;;5.20;4.90;;;;;24.40;100776.00;;;;2059588;28;20215;-70
2021/06/26 01:02:40;;;;;;;5.13;4.83;;;;;24.40;100766.00;;;;2061316;28;20708;-70
2021/06/26 01:03:43;;;;;;;5.37;4.97;;;;;24.40;100759.00;;;;2065276;28;20211;-70
2021/06/26 01:04:43;;;;;;;4.80;4.50;;;;;24.40;100768.00;;;;2063087;28;20214;-70
2021/06/26 01:05:43;;;;;;;4.67;4.37;;;;;24.40;100765.00;;;;2061576;28;20211;-70
2021/06/26 01:06:44;;;;;;;4.87;4.57;;;;;24.40;100772.00;;;;2059579;28;20220;-69
2021/06/26 01:07:45;;;;;;;5.17;4.80;;;;;24.40;100755.00;;;;2058916;28;20307;-70
2021/06/26 01:08:46;;;;;;;5.47;5.07;;;;;24.40;100760.00;;;;2051850;28;20213;-70
2021/06/26 01:09:46;;;;;;;4.70;4.40;;;;;24.40;100763.00;;;;2059245;28;20251;-70
2021/06/26 01:10:46;;;;;;;4.80;4.50;;;;;24.40;100761.00;;;;2059929;28;20231;-70
2021/06/26 01:11:47;;;;;;;5.30;4.90;;;;;24.40;100766.00;;;;2060353;28;20302;-70
2021/06/26 01:12:47;;;;;;;5.20;4.80;;;;;24.40;100756.00;;;;2058871;28;20211;-70
2021/06/26 01:13:48;;;;;;;5.23;4.83;;;;;24.40;100764.00;;;;2058367;28;20218;-70
2021/06/26 01:14:49;;;;;;;5.70;5.30;;;;;24.40;100760.00;;;;2057999;28;20226;-70
2021/06/26 01:15:51;;;;;;;5.50;5.10;;;;;24.40;100763.00;;;;2059175;28;20315;-70
2021/06/26 01:16:51;;;;;;;5.60;5.20;;;;;24.40;100766.00;;;;2058788;28;20262;-70
2021/06/26 01:17:52;;;;;;;5.70;5.30;;;;;24.40;100762.00;;;;2050405;28;20310;-70
2021/06/26 01:18:52;;;;;;;5.20;4.90;;;;;24.40;100763.00;;;;2050384;28;20228;-70
2021/06/26 01:19:53;;;;;;;5.40;5.10;;;;;24.40;100769.00;;;;2058927;28;20587;-70
2021/06/26 01:20:53;;;;;;;5.10;4.80;;;;;24.40;100774.00;;;;2059233;28;20645;-70
2021/06/26 01:21:54;;;;;;;5.43;5.03;;;;;24.40;100772.00;;;;2062625;28;20716;-70
2021/06/26 01:22:57;;;;;;;5.15;4.85;;;;;24.40;100770.00;;;;2061768;28;20275;-70
2021/06/26 01:23:58;;;;;;;4.93;4.63;;;;;24.40;100776.00;;;;2059608;28;20656;-70
2021/06/26 01:24:58;;;;;;;5.70;5.30;;;;;24.40;100775.00;;;;2059128;28;20218;-70
2021/06/26 01:25:58;;;;;;;5.23;4.83;;;;;24.40;100777.00;;;;2058984;28;20231;-70
2021/06/26 01:26:59;;;;;;;5.03;4.73;;;;;24.40;100781.00;;;;2058835;28;20299;-70
2021/06/26 01:28:00;;;;;;;5.60;5.20;;;;;24.40;100778.00;;;;2056045;28;20227;-70
2021/06/26 01:29:00;;;;;;;5.37;5.00;;;;;24.40;100775.00;;;;2059204;28;20223;-70
2021/06/26 01:30:01;;;;;;;5.30;5.00;;;;;24.40;100777.00;;;;2060198;28;20226;-70
2021/06/26 01:31:01;;;;;;;5.30;4.90;;;;;24.40;100775.00;;;;2059629;28;20223;-70
2021/06/26 01:32:05;;;;;;;5.70;5.30;;;;;24.40;100775.00;;;;2059802;28;20261;-70
2021/06/26 01:33:05;;;;;;;4.68;4.38;;;;;24.40;100772.00;;;;2059364;28;20216;-70
2021/06/26 01:34:06;;;;;;;5.73;5.20;;;;;24.40;100774.00;;;;2059283;28;20298;-70
2021/06/26 01:35:07;;;;;;;5.33;4.93;;;;;24.40;100772.00;;;;2061313;28;20222;-70
2021/06/26 01:36:07;;;;;;;5.32;4.93;;;;;24.40;100772.00;;;;2060447;28;20669;-70
2021/06/26 01:37:07;;;;;;;5.27;4.87;;;;;24.40;100768.00;;;;2060043;28;20266;-70
2021/06/26 01:38:08;;;;;;;5.60;5.20;;;;;24.40;100773.00;;;;2059249;28;20219;-70
2021/06/26 01:39:08;;;;;;;5.63;5.23;;;;;24.40;100774.00;;;;2051378;28;20286;-70
2021/06/26 01:40:09;;;;;;;5.70;5.30;;;;;24.40;100771.00;;;;2059375;28;20223;-70
2021/06/26 01:41:10;;;;;;;5.88;5.47;;;;;24.40;100772.00;;;;2059255;28;20331;-70
2021/06/26 01:42:10;;;;;;;4.83;4.53;;;;;24.30;100769.00;;;;2059276;28;20583;-70
2021/06/26 01:43:11;;;;;;;5.30;4.90;;;;;24.40;100771.00;;;;2058698;28;20218;-70
2021/06/26 01:44:12;;;;;;;5.35;5.05;;;;;24.40;100767.00;;;;2050525;28;20223;-69
2021/06/26 01:45:14;;;;;;;5.20;4.90;;;;;24.40;100764.00;;;;2059141;28;20208;-69
2021/06/26 01:46:14;;;;;;;5.90;5.50;;;;;24.40;100764.00;;;;2059852;28;20968;-69
2021/06/26 01:47:14;;;;;;;5.10;4.70;;;;;24.30;100765.00;;;;2059164;28;20220;-69
2021/06/26 01:48:15;;;;;;;5.07;4.77;;;;;24.40;100763.00;;;;2059345;28;20218;-70
2021/06/26 01:49:17;;;;;;;5.93;5.53;;;;;24.30;100760.00;;;;2059517;28;20222;-70
2021/06/26 01:50:18;;;;;;;5.30;4.90;;;;;24.30;100762.00;;;;2058058;28;20305;-70
2021/06/26 01:51:18;;;;;;;5.53;5.13;;;;;24.40;100767.00;;;;2049243;28;20299;-70
2021/06/26 01:52:18;;;;;;;5.90;5.50;;;;;24.40;100770.00;;;;2050568;28;20244;-70
2021/06/26 01:53:19;;;;;;;5.57;5.17;;;;;24.40;100764.00;;;;2059367;28;20263;-70
2021/06/26 01:54:19;;;;;;;5.40;5.00;;;;;24.30;100773.00;;;;2059280;28;20223;-69
2021/06/26 01:55:20;;;;;;;5.50;5.10;;;;;24.40;100765.00;;;;2051330;28;20789;-69
2021/06/26 01:56:20;;;;;;;5.53;5.13;;;;;24.30;100761.00;;;;2051336;28;20218;-70
2021/06/26 01:57:20;;;;;;;4.90;4.57;;;;;24.30;100762.00;;;;2059000;28;20344;-70
2021/06/26 01:58:21;;;;;;;5.27;4.87;;;;;24.30;100755.00;;;;2058516;28;20207;-70
2021/06/26 01:59:21;;;;;;;5.43;5.03;;;;;24.30;100757.00;;;;2058659;28;20207;-70
2021/06/26 02:00:22;;;;;;;5.70;5.30;;;;;24.30;100760.00;;;;2058231;28;20215;-69
2021/06/26 02:01:23;;;;;;;5.47;4.97;;;;;24.30;100763.00;;;;2057929;28;20232;-69
2021/06/26 02:02:23;;;;;;;5.70;5.30;;;;;24.30;100760.00;;;;2058267;28;20226;-70
2021/06/26 02:03:23;;;;;;;5.60;5.20;;;;;24.30;100756.00;;;;2064710;28;20244;-70
2021/06/26 02:04:24;;;;;;;5.67;5.27;;;;;24.30;100761.00;;;;2063153;28;20245;-70
2021/06/26 02:05:24;;;;;;;5.60;5.23;;;;;24.30;100767.00;;;;2061509;28;20210;-70
2021/06/26 02:06:24;;;;;;;5.87;5.40;;;;;24.30;100772.00;;;;2058703;28;20211;-70
2021/06/26 02:07:25;;;;;;;5.83;5.43;;;;;24.30;100772.00;;;;2058489;28;20364;-70
2021/06/26 02:08:25;;;;;;;5.80;5.30;;;;;24.30;100774.00;;;;2058598;28;20217;-70
2021/06/26 02:09:25;;;;;;;5.33;4.97;;;;;24.30;100776.00;;;;2059154;28;20208;-70
2021/06/26 02:10:26;;;;;;;5.77;5.37;;;;;24.30;100777.00;;;;2059005;28;20219;-70
2021/06/26 02:11:26;;;;;;;5.43;5.03;;;;;24.30;100773.00;;;;2059600;28;20306;-70
2021/06/26 02:12:26;;;;;;;5.40;5.00;;;;;24.30;100766.00;;;;2059057;28;20760;-70
2021/06/26 02:13:27;;;;;;;5.20;4.90;;;;;24.30;100768.00;;;;2059159;28;20210;-70
2021/06/26 02:14:27;;;;;;;5.50;5.10;;;;;24.30;100773.00;;;;2059853;28;20211;-70
2021/06/26 02:15:27;;;;;;;6.10;5.70;;;;;24.30;100776.00;;;;2058455;28;20246;-70
2021/06/26 02:16:28;;;;;;;6.17;5.77;;;;;24.30;100783.00;;;;2058403;28;20262;-70
2021/06/26 02:17:28;;;;;;;5.20;4.90;;;;;24.30;100771.00;;;;2058899;28;20298;-70
2021/06/26 02:18:28;;;;;;;4.90;4.50;;;;;24.30;100764.00;;;;2058921;28;20270;-70
2021/06/26 02:19:29;;;;;;;6.57;6.07;;;;;24.30;100768.00;;;;2059454;28;20215;-70
2021/06/26 02:20:29;;;;;;;5.23;4.83;;;;;24.30;100776.00;;;;2059588;28;20238;-70
2021/06/26 02:21:29;;;;;;;5.70;5.30;;;;;24.30;100773.00;;;;2058991;28;20868;-70
2021/06/26 02:22:30;;;;;;;5.50;5.10;;;;;24.30;100757.00;;;;2059167;28;20213;-70
2021/06/26 02:23:30;;;;;;;4.73;4.43;;;;;24.30;100770.00;;;;2058937;28;20210;-70
2021/06/26 02:24:31;;;;;;;5.73;5.33;;;;;24.30;100765.00;;;;2058437;28;20342;-70
2021/06/26 02:25:32;;;;;;;5.77;5.37;;;;;24.30;100761.00;;;;2059010;28;20230;-70
2021/06/26 02:26:32;;;;;;;6.10;5.60;;;;;24.30;100760.00;;;;2058818;28;20211;-70
2021/06/26 02:27:33;;;;;;;6.03;5.63;;;;;24.30;100752.00;;;;2058671;28;20455;-70
2021/06/26 02:28:33;;;;;;;5.15;4.85;;;;;24.30;100762.00;;;;2059023;28;20246;-70
2021/06/26 02:29:34;;;;;;;5.73;5.33;;;;;24.30;100756.00;;;;2051134;28;20319;-70
2021/06/26 02:30:35;;;;;;;5.70;5.23;;;;;24.30;100757.00;;;;2058870;28;20214;-70
2021/06/26 02:31:35;;;;;;;5.80;5.40;;;;;24.30;100752.00;;;;2059829;28;20211;-70
2021/06/26 02:32:35;;;;;;;4.70;4.40;;;;;24.30;100756.00;;;;2058575;28;20272;-69
2021/06/26 02:33:35;;;;;;;5.57;5.17;;;;;24.30;100754.00;;;;2059732;28;20216;-70
2021/06/26 02:34:36;;;;;;;5.20;4.90;;;;;24.30;100752.00;;;;2064291;28;20210;-70
2021/06/26 02:35:36;;;;;;;5.50;5.13;;;;;24.30;100754.00;;;;2065279;28;20290;-70
2021/06/26 02:36:36;;;;;;;5.27;4.90;;;;;24.30;100753.00;;;;2059313;28;20211;-70
2021/06/26 02:37:38;;;;;;;4.67;4.37;;;;;24.30;100762.00;;;;2058884;28;20219;-70
2021/06/26 02:38:39;;;;;;;5.50;5.10;;;;;24.30;100757.00;;;;2058157;28;20214;-70
2021/06/26 02:39:39;;;;;;;5.87;5.47;;;;;24.30;100763.00;;;;2058262;28;20327;-70
2021/06/26 02:40:40;;;;;;;5.87;5.37;;;;;24.30;100757.00;;;;2058933;28;20226;-70
2021/06/26 02:41:40;;;;;;;5.70;5.30;;;;;24.30;100756.00;;;;2059379;28;20265;-70
2021/06/26 02:42:40;;;;;;;5.43;5.03;;;;;24.30;100765.00;;;;2050903;28;20224;-70
2021/06/26 02:43:41;;;;;;;5.60;5.20;;;;;24.30;100754.00;;;;2043018;28;20239;-70
2021/06/26 02:44:41;;;;;;;5.50;5.10;;;;;24.30;100750.00;;;;2058788;28;20774;-70
2021/06/26 02:45:41;;;;;;;5.30;4.97;;;;;24.30;100758.00;;;;2058883;28;20754;-70
2021/06/26 02:46:42;;;;;;;6.00;5.50;;;;;24.30;100752.00;;;;2058840;28;20337;-70
2021/06/26 02:47:42;;;;;;;5.83;5.43;;;;;24.30;100748.00;;;;2058647;28;20319;-70
2021/06/26 02:48:43;;;;;;;5.37;4.97;;;;;24.30;100749.00;;;;2058310;28;20621;-69
2021/06/26 02:49:43;;;;;;;5.03;4.73;;;;;24.30;100743.00;;;;2042694;28;20647;-70
2021/06/26 02:50:44;;;;;;;5.20;4.90;;;;;24.30;100747.00;;;;2050742;28;20274;-70
2021/06/26 02:51:44;;;;;;;5.60;5.13;;;;;24.30;100746.00;;;;2059641;28;20226;-70
2021/06/26 02:52:45;;;;;;;6.10;5.60;;;;;24.30;100748.00;;;;2059657;28;20254;-70
2021/06/26 02:53:45;;;;;;;5.77;5.37;;;;;24.30;100753.00;;;;2058961;28;20594;-69
2021/06/26 02:54:46;;;;;;;5.40;5.00;;;;;24.30;100743.00;;;;2058876;28;20450;-70
2021/06/26 02:55:46;;;;;;;5.67;5.27;;;;;24.30;100737.00;;;;2058912;28;20712;-70
2021/06/26 02:56:46;;;;;;;5.93;5.43;;;;;24.30;100750.00;;;;2058800;28;20651;-70
2021/06/26 02:57:47;;;;;;;5.67;5.27;;;;;24.30;100748.00;;;;2058900;28;20571;-70
2021/06/26 02:58:47;;;;;;;5.50;5.10;;;;;24.30;100747.00;;;;2059667;28;20294;-70
2021/06/26 02:59:48;;;;;;;5.33;4.93;;;;;24.30;100748.00;;;;2058926;28;20222;-70
2021/06/26 03:00:49;;;;;;;6.18;5.78;;;;;24.30;100754.00;;;;2058645;28;20708;-70
2021/06/26 03:01:49;;;;;;;5.77;5.37;;;;;24.30;100753.00;;;;2059662;28;20222;-70
2021/06/26 03:02:49;;;;;;;5.90;5.50;;;;;24.30;100757.00;;;;2059561;28;20214;-70
2021/06/26 03:03:50;;;;;;;6.00;5.60;;;;;24.30;100754.00;;;;2065327;28;20235;-70
2021/06/26 03:04:50;;;;;;;5.20;4.90;;;;;24.30;100761.00;;;;2063797;28;20215;-69
2021/06/26 03:05:50;;;;;;;5.90;5.50;;;;;24.30;100762.00;;;;2062130;28;20346;-70
2021/06/26 03:06:51;;;;;;;5.60;5.20;;;;;24.30;100756.00;;;;2061078;28;20281;-70
2021/06/26 03:07:52;;;;;;;5.70;5.30;;;;;24.30;100749.00;;;;2061202;28;20267;-70
2021/06/26 03:08:52;;;;;;;5.90;5.50;;;;;24.30;100752.00;;;;2061100;28;20211;-70
2021/06/26 03:09:53;;;;;;;4.97;4.67;;;;;24.30;100755.00;;;;2061147;28;20713;-70
2021/06/26 03:10:53;;;;;;;6.10;5.70;;;;;24.30;100757.00;;;;2060327;28;20231;-70
2021/06/26 03:11:53;;;;;;;5.77;5.37;;;;;24.30;100761.00;;;;2060436;28;20273;-69
2021/06/26 03:12:54;;;;;;;5.50;5.10;;;;;24.30;100760.00;;;;2060372;28;20215;-70
2021/06/26 03:13:54;;;;;;;5.60;5.20;;;;;24.30;100757.00;;;;2060370;28;20269;-70
2021/06/26 03:14:54;;;;;;;5.67;5.27;;;;;24.30;100763.00;;;;2060575;28;20307;-70
2021/06/26 03:15:55;;;;;;;5.53;5.20;;;;;24.30;100761.00;;;;2061257;28;20215;-70
2021/06/26 03:16:55;;;;;;;5.10;4.80;;;;;24.30;100752.00;;;;2061105;28;20266;-70
2021/06/26 03:17:55;;;;;;;5.30;4.90;;;;;24.30;100761.00;;;;2061042;28;20215;-70
2021/06/26 03:18:56;;;;;;;5.40;5.07;;;;;24.30;100756.00;;;;2059487;28;20221;-70
2021/06/26 03:19:56;;;;;;;5.90;5.50;;;;;24.30;100760.00;;;;2059688;28;20245;-69
2021/06/26 03:20:56;;;;;;;5.87;5.47;;;;;24.30;100754.00;;;;2059823;28;20214;-70
2021/06/26 03:21:57;;;;;;;5.00;4.70;;;;;24.30;100751.00;;;;2060250;28;20263;-70
2021/06/26 03:22:57;;;;;;;6.13;5.67;;;;;24.30;100752.00;;;;2060277;28;20775;-69
2021/06/26 03:23:57;;;;;;;6.50;6.10;;;;;24.30;100762.00;;;;2060085;28;20217;-69
2021/06/26 03:24:58;;;;;;;5.63;5.23;;;;;24.30;100757.00;;;;2060435;28;20663;-70
2021/06/26 03:25:58;;;;;;;5.90;5.50;;;;;24.30;100758.00;;;;2060632;28;20254;-69
2021/06/26 03:26:59;;;;;;;6.13;5.63;;;;;24.30;100754.00;;;;2056881;28;20756;-69
2021/06/26 03:27:59;;;;;;;6.60;6.07;;;;;24.30;100758.00;;;;2051788;28;20224;-70
2021/06/26 03:29:00;;;;;;;5.83;5.40;;;;;24.30;100768.00;;;;2059025;28;20222;-69
2021/06/26 03:30:00;;;;;;;5.83;5.33;;;;;24.30;100765.00;;;;2060098;28;20216;-70
2021/06/26 03:31:01;;;;;;;5.57;5.17;;;;;24.30;100758.00;;;;2059653;28;20482;-70
2021/06/26 03:32:01;;;;;;;5.70;5.30;;;;;24.30;100768.00;;;;2058763;28;20200;-70
2021/06/26 03:33:02;;;;;;;5.60;5.23;;;;;24.30;100754.00;;;;2059748;28;20259;-69
2021/06/26 03:34:02;;;;;;;5.73;5.33;;;;;24.30;100763.00;;;;2061377;28;20212;-70
2021/06/26 03:35:03;;;;;;;5.87;5.37;;;;;24.30;100765.00;;;;2057020;28;20223;-69
2021/06/26 03:36:04;;;;;;;5.93;5.43;;;;;24.30;100763.00;;;;2052850;28;20212;-70
2021/06/26 03:37:04;;;;;;;5.70;5.30;;;;;24.30;100764.00;;;;2059072;28;21211;-70
2021/06/26 03:38:04;;;;;;;5.63;5.23;;;;;24.30;100766.00;;;;2060462;28;20212;-70
2021/06/26 03:39:05;;;;;;;5.80;5.40;;;;;24.30;100773.00;;;;2060664;28;20614;-70
2021/06/26 03:40:06;;;;;;;5.43;5.03;;;;;24.30;100772.00;;;;2060405;28;20570;-70
2021/06/26 03:41:06;;;;;;;5.53;5.13;;;;;24.30;100771.00;;;;2054894;28;20312;-70
2021/06/26 03:42:09;;;;;;;5.67;5.27;;;;;24.30;100763.00;;;;2066933;28;20938;-70
2021/06/26 03:43:09;;;;;;;6.10;5.70;;;;;24.30;100760.00;;;;2062306;28;21038;-70
2021/06/26 03:44:09;;;;;;;5.97;5.57;;;;;24.30;100768.00;;;;2059265;28;20227;-70
2021/06/26 03:45:10;;;;;;;6.33;5.77;;;;;24.30;100770.00;;;;2059423;28;20302;-70
2021/06/26 03:46:10;;;;;;;6.50;6.00;;;;;24.30;100765.00;;;;2059343;28;20226;-70
2021/06/26 03:47:11;;;;;;;6.00;5.57;;;;;24.30;100772.00;;;;2059500;28;20215;-70
2021/06/26 03:48:11;;;;;;;6.03;5.63;;;;;24.30;100773.00;;;;2058912;28;20215;-70
2021/06/26 03:49:12;;;;;;;5.57;5.17;;;;;24.30;100777.00;;;;2059490;28;20222;-70
2021/06/26 03:50:12;;;;;;;5.40;5.00;;;;;24.30;100769.00;;;;2060784;28;20216;-70
2021/06/26 03:51:12;;;;;;;5.70;5.30;;;;;24.30;100775.00;;;;2060043;28;20259;-70
2021/06/26 03:52:13;;;;;;;5.67;5.27;;;;;24.30;100774.00;;;;2060142;28;20306;-70
2021/06/26 03:53:13;;;;;;;5.70;5.30;;;;;24.30;100765.00;;;;2060737;28;20211;-70
2021/06/26 03:54:13;;;;;;;5.40;5.00;;;;;24.30;100777.00;;;;2059279;28;20950;-70
2021/06/26 03:55:14;;;;;;;5.20;4.90;;;;;24.30;100760.00;;;;2059276;28;20289;-70
2021/06/26 03:56:14;;;;;;;6.10;5.60;;;;;24.30;100768.00;;;;2060224;28;20277;-70
2021/06/26 03:57:15;;;;;;;5.70;5.30;;;;;24.30;100770.00;;;;2060081;28;20310;-70
2021/06/26 03:58:15;;;;;;;6.10;5.70;;;;;24.30;100772.00;;;;2060753;28;20215;-70
2021/06/26 03:59:15;;;;;;;5.90;5.50;;;;;24.30;100768.00;;;;2060900;28;20208;-70
2021/06/26 04:00:16;;;;;;;5.43;5.13;;;;;24.30;100769.00;;;;2059966;28;20216;-70
2021/06/26 04:01:16;;;;;;;6.07;5.67;;;;;24.30;100768.00;;;;2052001;28;20366;-70
2021/06/26 04:02:17;;;;;;;5.90;5.50;;;;;24.30;100769.00;;;;2059224;28;20655;-70
2021/06/26 04:03:17;;;;;;;5.97;5.57;;;;;24.30;100774.00;;;;2064723;28;20214;-70
2021/06/26 04:04:19;;;;;;;5.83;5.43;;;;;24.30;100771.00;;;;2063654;28;20237;-70
2021/06/26 04:05:20;;;;;;;5.82;5.43;;;;;24.30;100772.00;;;;2061880;28;20720;-70
2021/06/26 04:06:20;;;;;;;5.33;4.93;;;;;24.30;100770.00;;;;2060484;28;20297;-70
2021/06/26 04:07:21;;;;;;;5.80;5.30;;;;;24.30;100771.00;;;;2060068;28;20218;-70
2021/06/26 04:08:21;;;;;;;5.80;5.40;;;;;24.30;100765.00;;;;2060027;28;20217;-70
2021/06/26 04:09:21;;;;;;;5.43;5.03;;;;;24.30;100774.00;;;;2059711;28;20211;-70
2021/06/26 04:10:22;;;;;;;5.87;5.47;;;;;24.30;100774.00;;;;2059606;28;20211;-70
2021/06/26 04:11:22;;;;;;;6.00;5.60;;;;;24.30;100774.00;;;;2059758;28;20662;-70
2021/06/26 04:12:22;;;;;;;5.80;5.40;;;;;24.30;100770.00;;;;2060139;28;20230;-70
2021/06/26 04:13:23;;;;;;;5.40;4.97;;;;;24.30;100769.00;;;;2059148;28;20709;-70
2021/06/26 04:14:23;;;;;;;6.30;5.80;;;;;24.30;100770.00;;;;2060840;28;20696;-70
2021/06/26 04:15:23;;;;;;;5.50;5.10;;;;;24.30;100767.00;;;;2059298;28;20230;-70
2021/06/26 04:16:24;;;;;;;5.60;5.20;;;;;24.30;100768.00;;;;2051244;28;20223;-70
2021/06/26 04:17:24;;;;;;;5.43;5.03;;;;;24.30;100768.00;;;;2059067;28;20246;-70
2021/06/26 04:18:24;;;;;;;6.33;5.53;;;;;24.30;100765.00;;;;2060019;28;20230;-70
2021/06/26 04:19:25;;;;;;;5.60;5.20;;;;;24.30;100773.00;;;;2060284;28;20230;-70
2021/06/26 04:20:25;;;;;;;5.83;5.43;;;;;24.30;100766.00;;;;2059651;28;20320;-70
2021/06/26 04:21:26;;;;;;;5.50;5.20;;;;;24.20;100777.00;;;;2044036;28;20305;-70
2021/06/26 04:22:26;;;;;;;6.20;5.70;;;;;24.30;100766.00;;;;2051962;28;20219;-70
2021/06/26 04:23:26;;;;;;;5.87;5.47;;;;;24.30;100765.00;;;;2060370;28;20210;-70
2021/06/26 04:24:27;;;;;;;5.63;5.33;;;;;24.30;100769.00;;;;2059944;28;20241;-69
2021/06/26 04:25:28;;;;;;;5.77;5.37;;;;;24.30;100775.00;;;;2059791;28;20281;-70
2021/06/26 04:26:28;;;;;;;5.75;5.35;;;;;24.30;100777.00;;;;2059152;28;20219;-70
2021/06/26 04:27:28;;;;;;;6.10;5.70;;;;;24.30;100767.00;;;;2059317;28;20246;-70
2021/06/26 04:28:29;;;;;;;5.43;5.13;;;;;24.30;100783.00;;;;2060387;28;20223;-70
2021/06/26 04:29:29;;;;;;;6.10;5.70;;;;;24.30;100773.00;;;;2060716;28;20223;-69
2021/06/26 04:30:29;;;;;;;6.07;5.67;;;;;24.30;100774.00;;;;2060528;28;20230;-70
2021/06/26 04:31:30;;;;;;;6.33;5.83;;;;;24.30;100778.00;;;;2060539;28;20246;-69
2021/06/26 04:32:30;;;;;;;5.73;5.33;;;;;24.30;100771.00;;;;2059270;28;20215;-70
2021/06/26 04:33:30;;;;;;;6.00;5.60;;;;;24.30;100772.00;;;;2059339;28;20211;-70
2021/06/26 04:34:31;;;;;;;5.67;5.27;;;;;24.30;100776.00;;;;2063639;28;21042;-70
2021/06/26 04:35:32;;;;;;;5.73;5.33;;;;;24.30;100764.00;;;;2065148;28;20273;-70
2021/06/26 04:36:32;;;;;;;5.57;5.17;;;;;24.30;100766.00;;;;2060208;28;20211;-70
2021/06/26 04:37:32;;;;;;;5.60;5.20;;;;;24.30;100776.00;;;;2059298;28;20211;-69
2021/06/26 04:38:33;;;;;;;6.20;5.80;;;;;24.30;100772.00;;;;2059197;28;20211;-69
2021/06/26 04:39:33;;;;;;;6.10;5.60;;;;;24.30;100778.00;;;;2059211;28;20309;-70
2021/06/26 04:40:33;;;;;;;5.90;5.50;;;;;24.30;100773.00;;;;2059636;28;20289;-70
2021/06/26 04:41:35;;;;;;;6.00;5.60;;;;;24.30;100777.00;;;;2059679;28;20226;-70
2021/06/26 04:42:35;;;;;;;6.15;5.70;;;;;24.30;100774.00;;;;2059746;28;20222;-69
2021/06/26 04:43:35;;;;;;;5.00;4.70;;;;;24.30;100771.00;;;;2059597;28;20757;-70
2021/06/26 04:44:36;;;;;;;5.17;4.87;;;;;24.30;100770.00;;;;2059797;28;20223;-69
2021/06/26 04:45:36;;;;;;;6.10;5.70;;;;;24.30;100771.00;;;;2051781;28;20224;-70
2021/06/26 04:46:36;;;;;;;6.20;5.70;;;;;24.30;100769.00;;;;2043943;28;20216;-69
2021/06/26 04:47:39;;;;;;;5.50;5.10;;;;;24.30;100773.00;;;;2059802;28;20229;-69
2021/06/26 04:48:40;;;;;;;6.20;5.80;;;;;24.30;100767.00;;;;2059602;28;20214;-69
2021/06/26 04:49:41;;;;;;;5.72;5.32;;;;;24.30;100770.00;;;;2051852;28;20298;-69
2021/06/26 04:50:41;;;;;;;6.27;5.80;;;;;24.30;100777.00;;;;2051634;28;20678;-69
2021/06/26 04:51:41;;;;;;;5.50;5.10;;;;;24.30;100776.00;;;;2059443;28;20215;-70
2021/06/26 04:52:43;;;;;;;5.50;5.10;;;;;24.30;100777.00;;;;2059555;28;20214;-69
2021/06/26 04:53:43;;;;;;;5.80;5.40;;;;;24.30;100773.00;;;;2058979;28;20587;-69
2021/06/26 04:54:43;;;;;;;5.77;5.37;;;;;24.30;100788.00;;;;2058999;28;20306;-69
2021/06/26 04:55:51;;;;;;;5.67;5.27;;;;;24.30;100779.00;;;;2059071;28;20218;-69
2021/06/26 04:56:52;;;;;;;6.20;5.70;;;;;24.30;100788.00;;;;2060148;28;20220;-69
2021/06/26 04:57:52;;;;;;;5.60;5.20;;;;;24.30;100782.00;;;;2057436;28;20227;-69
2021/06/26 04:58:52;;;;;;;5.80;5.40;;;;;24.30;100788.00;;;;2059836;28;20234;-69
2021/06/26 04:59:53;;;;;;;6.13;5.63;;;;;24.30;100784.00;;;;2060508;28;20719;-69
2021/06/26 05:00:54;;;;;;;6.13;5.63;;;;;24.30;100781.00;;;;2059803;28;20681;-69
2021/06/26 05:01:55;;;;;;;6.47;5.97;;;;;24.30;100786.00;;;;2059673;28;20218;-70
2021/06/26 05:02:55;;;;;;;6.37;5.97;;;;;24.30;100796.00;;;;2060420;28;20567;-69
2021/06/26 05:03:55;;;;;;;5.47;5.13;;;;;24.30;100790.00;;;;2063620;28;20621;-69
2021/06/26 05:04:56;;;;;;;5.60;5.20;;;;;24.30;100795.00;;;;2061692;28;20334;-69
2021/06/26 05:05:58;;;;;;;5.90;5.50;;;;;24.30;100799.00;;;;2060469;28;20219;-69